FDX2448 EGKK-LFPG
Flight info
| Callsign | FDX2448 |
|---|---|
| Flight time | 0h 39m |
| Altitude | 23000 |
| Route | SFD M605 HARDY UM605 BIBAX |
| Aircraft | B738/M-SDE2E3FGHIRWXY/LB1 |
Departure
| Time | 2026-05-08 19:28 |
|---|---|
| Airport | London Gatwick Airport (EGKK) |
Arrival
| Time | 2026-05-08 20:07 |
|---|---|
| Airport | Charles de Gaulle International Airport (LFPG) |
| Time | Latitude | Longitude | Altitude | Speed | Heading |
|---|---|---|---|---|---|
| 2026-05-08 18:52 | 51.15708 | -0.18395 | 209 ft | 0 kts | 347° |
| 2026-05-08 19:10 | 51.15703 | -0.18394 | 215 ft | 1 kts | 347° |
| 2026-05-08 19:10 | 51.15695 | -0.18391 | 215 ft | 1 kts | 347° |
| 2026-05-08 19:11 | 51.15688 | -0.18388 | 217 ft | 1 kts | 347° |
| 2026-05-08 19:11 | 51.15681 | -0.18386 | 217 ft | 1 kts | 346° |
| 2026-05-08 19:11 | 51.15673 | -0.18383 | 214 ft | 1 kts | 21° |
| 2026-05-08 19:11 | 51.15667 | -0.18389 | 211 ft | 1 kts | 66° |
| 2026-05-08 19:12 | 51.15665 | -0.18396 | 215 ft | 0 kts | 93° |
| 2026-05-08 19:16 | 51.15665 | -0.18395 | 215 ft | 1 kts | 93° |
| 2026-05-08 19:17 | 51.15663 | -0.18349 | 214 ft | 8 kts | 93° |
| 2026-05-08 19:17 | 51.15651 | -0.18258 | 211 ft | 0 kts | 113° |
| 2026-05-08 19:17 | 51.15650 | -0.18257 | 211 ft | 0 kts | 123° |
| 2026-05-08 19:17 | 51.15643 | -0.18251 | 211 ft | 3 kts | 148° |
| 2026-05-08 19:18 | 51.15604 | -0.18226 | 210 ft | 8 kts | 163° |
| 2026-05-08 19:18 | 51.15536 | -0.18204 | 209 ft | 11 kts | 169° |
| 2026-05-08 19:18 | 51.15459 | -0.18180 | 216 ft | 11 kts | 169° |
| 2026-05-08 19:18 | 51.15385 | -0.18151 | 212 ft | 11 kts | 162° |
| 2026-05-08 19:19 | 51.15314 | -0.18118 | 208 ft | 11 kts | 168° |
| 2026-05-08 19:19 | 51.15241 | -0.18099 | 205 ft | 10 kts | 175° |
| 2026-05-08 19:19 | 51.15206 | -0.18144 | 209 ft | 7 kts | 253° |
| 2026-05-08 19:19 | 51.15197 | -0.18219 | 208 ft | 7 kts | 259° |
| 2026-05-08 19:20 | 51.15186 | -0.18295 | 213 ft | 7 kts | 257° |
| 2026-05-08 19:20 | 51.15183 | -0.18321 | 210 ft | 8 kts | 258° |
| 2026-05-08 19:20 | 51.15156 | -0.18541 | 208 ft | 18 kts | 258° |
| 2026-05-08 19:20 | 51.15126 | -0.18771 | 209 ft | 23 kts | 258° |
| 2026-05-08 19:21 | 51.15091 | -0.19017 | 204 ft | 22 kts | 257° |
| 2026-05-08 19:21 | 51.15058 | -0.19255 | 204 ft | 22 kts | 258° |
| 2026-05-08 19:21 | 51.15027 | -0.19488 | 213 ft | 21 kts | 258° |
| 2026-05-08 19:21 | 51.14996 | -0.19714 | 207 ft | 21 kts | 257° |
| 2026-05-08 19:22 | 51.14975 | -0.19860 | 203 ft | 20 kts | 257° |
| 2026-05-08 19:22 | 51.14943 | -0.20074 | 207 ft | 19 kts | 257° |
| 2026-05-08 19:22 | 51.14918 | -0.20283 | 202 ft | 19 kts | 257° |
| 2026-05-08 19:22 | 51.14887 | -0.20482 | 201 ft | 18 kts | 256° |
| 2026-05-08 19:23 | 51.14865 | -0.20677 | 201 ft | 18 kts | 261° |
| 2026-05-08 19:23 | 51.14835 | -0.20863 | 206 ft | 17 kts | 255° |
| 2026-05-08 19:23 | 51.14815 | -0.21044 | 201 ft | 16 kts | 261° |
| 2026-05-08 19:23 | 51.14800 | -0.21137 | 204 ft | 0 kts | 248° |
| 2026-05-08 19:24 | 51.14800 | -0.21138 | 204 ft | 0 kts | 248° |
| 2026-05-08 19:24 | 51.14798 | -0.21142 | 213 ft | 1 kts | 244° |
| 2026-05-08 19:24 | 51.14789 | -0.21170 | 212 ft | 5 kts | 242° |
| 2026-05-08 19:24 | 51.14772 | -0.21240 | 201 ft | 9 kts | 255° |
| 2026-05-08 19:25 | 51.14760 | -0.21339 | 201 ft | 9 kts | 260° |
| 2026-05-08 19:25 | 51.14721 | -0.21402 | 204 ft | 9 kts | 181° |
| 2026-05-08 19:25 | 51.14667 | -0.21362 | 209 ft | 9 kts | 137° |
| 2026-05-08 19:25 | 51.14641 | -0.21330 | 200 ft | 0 kts | 154° |
| 2026-05-08 19:26 | 51.14638 | -0.21328 | 205 ft | 2 kts | 155° |
| 2026-05-08 19:26 | 51.14629 | -0.21324 | 203 ft | 0 kts | 165° |
| 2026-05-08 19:27 | 51.14626 | -0.21323 | 203 ft | 3 kts | 166° |
| 2026-05-08 19:27 | 51.14581 | -0.21307 | 202 ft | 9 kts | 165° |
| 2026-05-08 19:27 | 51.14525 | -0.21220 | 207 ft | 15 kts | 103° |
| 2026-05-08 19:27 | 51.14535 | -0.21018 | 207 ft | 23 kts | 79° |
| 2026-05-08 19:28 | 51.14602 | -0.20552 | 209 ft | 83 kts | 78° |
| 2026-05-08 19:28 | 51.14775 | -0.19199 | 278 ft | 157 kts | 81° |
| 2026-05-08 19:28 | 51.14978 | -0.17430 | 1194 ft | 165 kts | 81° |
| 2026-05-08 19:28 | 51.15186 | -0.15619 | 2366 ft | 168 kts | 79° |
| 2026-05-08 19:29 | 51.15449 | -0.13723 | 3158 ft | 183 kts | 79° |
| 2026-05-08 19:29 | 51.15725 | -0.11669 | 3801 ft | 201 kts | 78° |
| 2026-05-08 19:29 | 51.16060 | -0.09363 | 4133 ft | 223 kts | 86° |
| 2026-05-08 19:29 | 51.15666 | -0.06997 | 4760 ft | 228 kts | 125° |
| 2026-05-08 19:30 | 51.14412 | -0.05293 | 5097 ft | 254 kts | 157° |
| 2026-05-08 19:30 | 51.12667 | -0.04540 | 5746 ft | 263 kts | 168° |
| 2026-05-08 19:30 | 51.10873 | -0.03955 | 5967 ft | 263 kts | 168° |
| 2026-05-08 19:30 | 51.09063 | -0.03370 | 5992 ft | 267 kts | 166° |
| 2026-05-08 19:31 | 51.07295 | -0.02585 | 6005 ft | 267 kts | 163° |
| 2026-05-08 19:31 | 51.05520 | -0.01719 | 6006 ft | 267 kts | 163° |
| 2026-05-08 19:31 | 51.03741 | -0.00856 | 6002 ft | 268 kts | 163° |
| 2026-05-08 19:31 | 51.01958 | 0.00006 | 5997 ft | 268 kts | 162° |
| 2026-05-08 19:32 | 51.00169 | 0.00860 | 6004 ft | 268 kts | 162° |
| 2026-05-08 19:32 | 50.98381 | 0.01707 | 6002 ft | 268 kts | 162° |
| 2026-05-08 19:32 | 50.96608 | 0.02545 | 6003 ft | 268 kts | 162° |
| 2026-05-08 19:32 | 50.94797 | 0.03400 | 5993 ft | 268 kts | 163° |
| 2026-05-08 19:33 | 50.93033 | 0.04233 | 5987 ft | 268 kts | 163° |
| 2026-05-08 19:33 | 50.91248 | 0.05074 | 5993 ft | 267 kts | 163° |
| 2026-05-08 19:33 | 50.89461 | 0.05915 | 5988 ft | 268 kts | 163° |
| 2026-05-08 19:33 | 50.87674 | 0.06755 | 5989 ft | 268 kts | 163° |
| 2026-05-08 19:34 | 50.85889 | 0.07595 | 5992 ft | 267 kts | 163° |
| 2026-05-08 19:34 | 50.84100 | 0.08438 | 5989 ft | 268 kts | 163° |
| 2026-05-08 19:34 | 50.82311 | 0.09281 | 5985 ft | 268 kts | 163° |
| 2026-05-08 19:34 | 50.80545 | 0.10111 | 5987 ft | 268 kts | 163° |
| 2026-05-08 19:35 | 50.78752 | 0.10953 | 5988 ft | 268 kts | 163° |
| 2026-05-08 19:35 | 50.76958 | 0.11796 | 5988 ft | 269 kts | 162° |
| 2026-05-08 19:35 | 50.75286 | 0.13094 | 6014 ft | 272 kts | 142° |
| 2026-05-08 19:35 | 50.73810 | 0.15012 | 6665 ft | 276 kts | 140° |
| 2026-05-08 19:36 | 50.72339 | 0.16932 | 7746 ft | 274 kts | 141° |
| 2026-05-08 19:36 | 50.70857 | 0.18853 | 8730 ft | 277 kts | 142° |
| 2026-05-08 19:36 | 50.69352 | 0.20791 | 9664 ft | 281 kts | 142° |
| 2026-05-08 19:36 | 50.67819 | 0.22757 | 10471 ft | 289 kts | 142° |
| 2026-05-08 19:37 | 50.66188 | 0.24837 | 10749 ft | 316 kts | 142° |
| 2026-05-08 19:37 | 50.64426 | 0.27083 | 11199 ft | 333 kts | 142° |
| 2026-05-08 19:37 | 50.62597 | 0.29412 | 11906 ft | 341 kts | 142° |
| 2026-05-08 19:37 | 50.60757 | 0.31752 | 12728 ft | 346 kts | 143° |
| 2026-05-08 19:38 | 50.58868 | 0.34148 | 13533 ft | 351 kts | 143° |
| 2026-05-08 19:38 | 50.56951 | 0.36580 | 14301 ft | 356 kts | 143° |
| 2026-05-08 19:38 | 50.55027 | 0.39029 | 15175 ft | 355 kts | 142° |
| 2026-05-08 19:38 | 50.53103 | 0.41478 | 16045 ft | 355 kts | 143° |
| 2026-05-08 19:39 | 50.51200 | 0.43898 | 16851 ft | 358 kts | 142° |
| 2026-05-08 19:39 | 50.49247 | 0.46376 | 17629 ft | 360 kts | 142° |
| 2026-05-08 19:39 | 50.47312 | 0.48827 | 18675 ft | 353 kts | 143° |
| 2026-05-08 19:39 | 50.45412 | 0.51232 | 19500 ft | 352 kts | 143° |
| 2026-05-08 19:40 | 50.43489 | 0.53657 | 20113 ft | 357 kts | 142° |
| 2026-05-08 19:40 | 50.41534 | 0.56123 | 20651 ft | 364 kts | 142° |
| 2026-05-08 19:40 | 50.39553 | 0.58620 | 21086 ft | 366 kts | 142° |
| 2026-05-08 19:40 | 50.37574 | 0.61112 | 21140 ft | 361 kts | 142° |
| 2026-05-08 19:41 | 50.35619 | 0.63570 | 21415 ft | 361 kts | 142° |
| 2026-05-08 19:41 | 50.33639 | 0.66059 | 21687 ft | 371 kts | 142° |
| 2026-05-08 19:41 | 50.31608 | 0.68612 | 22188 ft | 377 kts | 142° |
| 2026-05-08 19:41 | 50.29549 | 0.71200 | 22835 ft | 378 kts | 142° |
| 2026-05-08 19:42 | 50.27491 | 0.73786 | 23080 ft | 382 kts | 142° |
| 2026-05-08 19:42 | 50.25426 | 0.76377 | 23080 ft | 379 kts | 142° |
| 2026-05-08 19:42 | 50.23387 | 0.78880 | 23073 ft | 375 kts | 147° |
| 2026-05-08 19:42 | 50.21034 | 0.80565 | 23089 ft | 372 kts | 168° |
| 2026-05-08 19:43 | 50.18435 | 0.81076 | 23092 ft | 383 kts | 178° |
| 2026-05-08 19:43 | 50.15759 | 0.81195 | 23091 ft | 384 kts | 180° |
| 2026-05-08 19:43 | 50.13098 | 0.81221 | 23080 ft | 382 kts | 181° |
| 2026-05-08 19:43 | 50.10443 | 0.81233 | 23081 ft | 381 kts | 181° |
| 2026-05-08 19:44 | 50.07787 | 0.81243 | 23088 ft | 381 kts | 181° |
| 2026-05-08 19:44 | 50.05133 | 0.81252 | 23089 ft | 381 kts | 181° |
| 2026-05-08 19:44 | 50.02478 | 0.81257 | 23087 ft | 382 kts | 181° |
| 2026-05-08 19:44 | 49.99816 | 0.81250 | 23085 ft | 382 kts | 181° |
| 2026-05-08 19:45 | 49.97159 | 0.81247 | 23083 ft | 382 kts | 181° |
| 2026-05-08 19:45 | 49.94500 | 0.81240 | 23076 ft | 382 kts | 181° |
| 2026-05-08 19:45 | 49.91844 | 0.81235 | 23081 ft | 382 kts | 181° |
| 2026-05-08 19:45 | 49.89180 | 0.81223 | 23084 ft | 382 kts | 181° |
| 2026-05-08 19:46 | 49.86523 | 0.81207 | 23080 ft | 382 kts | 181° |
| 2026-05-08 19:46 | 49.83867 | 0.81188 | 23076 ft | 382 kts | 181° |
| 2026-05-08 19:46 | 49.78575 | 0.81168 | 23074 ft | 382 kts | 181° |
| 2026-05-08 19:47 | 49.75914 | 0.81158 | 23080 ft | 382 kts | 181° |
| 2026-05-08 19:47 | 49.73257 | 0.81146 | 23071 ft | 382 kts | 181° |
| 2026-05-08 19:47 | 49.70598 | 0.81125 | 23073 ft | 382 kts | 181° |
| 2026-05-08 19:47 | 49.67941 | 0.81102 | 23074 ft | 382 kts | 181° |
| 2026-05-08 19:48 | 49.65281 | 0.81215 | 23055 ft | 383 kts | 171° |
| 2026-05-08 19:48 | 49.62810 | 0.82672 | 23019 ft | 381 kts | 147° |
| 2026-05-08 19:48 | 49.60948 | 0.85510 | 22644 ft | 379 kts | 122° |
| 2026-05-08 19:48 | 49.59748 | 0.89116 | 22196 ft | 376 kts | 118° |
| 2026-05-08 19:49 | 49.58473 | 0.92635 | 21660 ft | 376 kts | 121° |
| 2026-05-08 19:49 | 49.57106 | 0.96037 | 21425 ft | 367 kts | 123° |
| 2026-05-08 19:49 | 49.55752 | 0.99234 | 21348 ft | 355 kts | 124° |
| 2026-05-08 19:49 | 49.54378 | 1.02394 | 21174 ft | 347 kts | 124° |
| 2026-05-08 19:50 | 49.53058 | 1.05393 | 20719 ft | 340 kts | 124° |
| 2026-05-08 19:50 | 49.51724 | 1.08409 | 20083 ft | 340 kts | 125° |
| 2026-05-08 19:50 | 49.50391 | 1.11415 | 19476 ft | 339 kts | 125° |
| 2026-05-08 19:50 | 49.49064 | 1.14406 | 18949 ft | 336 kts | 125° |
| 2026-05-08 19:51 | 49.47752 | 1.17360 | 18450 ft | 333 kts | 125° |
| 2026-05-08 19:51 | 49.46473 | 1.20237 | 18313 ft | 317 kts | 126° |
| 2026-05-08 19:51 | 49.45257 | 1.22974 | 18083 ft | 305 kts | 126° |
| 2026-05-08 19:51 | 49.44068 | 1.25643 | 17609 ft | 302 kts | 126° |
| 2026-05-08 19:52 | 49.42880 | 1.28308 | 17085 ft | 301 kts | 126° |
| 2026-05-08 19:52 | 49.41714 | 1.30921 | 16610 ft | 299 kts | 126° |
| 2026-05-08 19:52 | 49.40540 | 1.33550 | 16147 ft | 297 kts | 125° |
| 2026-05-08 19:52 | 49.39376 | 1.36155 | 15698 ft | 294 kts | 125° |
| 2026-05-08 19:53 | 49.38221 | 1.38737 | 15240 ft | 292 kts | 125° |
| 2026-05-08 19:53 | 49.37072 | 1.41302 | 14790 ft | 291 kts | 126° |
| 2026-05-08 19:53 | 49.35928 | 1.43855 | 14349 ft | 289 kts | 126° |
| 2026-05-08 19:53 | 49.34804 | 1.46362 | 13920 ft | 288 kts | 126° |
| 2026-05-08 19:54 | 49.33673 | 1.48884 | 13451 ft | 286 kts | 125° |
| 2026-05-08 19:54 | 49.32549 | 1.51384 | 13001 ft | 283 kts | 125° |
| 2026-05-08 19:54 | 49.31422 | 1.53847 | 12548 ft | 280 kts | 126° |
| 2026-05-08 19:54 | 49.30275 | 1.56257 | 12092 ft | 279 kts | 127° |
| 2026-05-08 19:55 | 49.29141 | 1.58617 | 11662 ft | 277 kts | 127° |
| 2026-05-08 19:55 | 49.28004 | 1.60984 | 11236 ft | 275 kts | 127° |
| 2026-05-08 19:55 | 49.26875 | 1.63336 | 10792 ft | 274 kts | 126° |
| 2026-05-08 19:55 | 49.25753 | 1.65676 | 10404 ft | 271 kts | 126° |
| 2026-05-08 19:56 | 49.24643 | 1.67993 | 9985 ft | 269 kts | 126° |
| 2026-05-08 19:56 | 49.23538 | 1.70300 | 9571 ft | 266 kts | 126° |
| 2026-05-08 19:56 | 49.22451 | 1.72569 | 9186 ft | 262 kts | 126° |
| 2026-05-08 19:56 | 49.21364 | 1.74807 | 8729 ft | 261 kts | 130° |
| 2026-05-08 19:57 | 49.19942 | 1.76474 | 8254 ft | 258 kts | 154° |
| 2026-05-08 19:57 | 49.18314 | 1.77598 | 7805 ft | 255 kts | 157° |
| 2026-05-08 19:57 | 49.16690 | 1.78669 | 7340 ft | 253 kts | 157° |
| 2026-05-08 19:57 | 49.15078 | 1.79723 | 6910 ft | 250 kts | 158° |
| 2026-05-08 19:58 | 49.13494 | 1.80759 | 6513 ft | 245 kts | 158° |
| 2026-05-08 19:58 | 49.11936 | 1.81775 | 6129 ft | 242 kts | 157° |
| 2026-05-08 19:58 | 49.10359 | 1.82791 | 6103 ft | 247 kts | 158° |
| 2026-05-08 19:58 | 49.08798 | 1.83791 | 6071 ft | 244 kts | 158° |
| 2026-05-08 19:59 | 49.07237 | 1.84788 | 6064 ft | 242 kts | 158° |
| 2026-05-08 19:59 | 49.05668 | 1.85790 | 6067 ft | 246 kts | 158° |
| 2026-05-08 19:59 | 49.04081 | 1.86800 | 6067 ft | 247 kts | 158° |
| 2026-05-08 19:59 | 49.02499 | 1.87807 | 6050 ft | 245 kts | 158° |
| 2026-05-08 20:00 | 49.00989 | 1.88998 | 6042 ft | 245 kts | 142° |
| 2026-05-08 20:00 | 48.99824 | 1.90878 | 6058 ft | 245 kts | 127° |
| 2026-05-08 20:00 | 48.98945 | 1.93105 | 6001 ft | 248 kts | 116° |
| 2026-05-08 20:00 | 48.98358 | 1.95588 | 5781 ft | 249 kts | 104° |
| 2026-05-08 20:01 | 48.98111 | 1.98140 | 5589 ft | 246 kts | 93° |
| 2026-05-08 20:01 | 48.98165 | 2.00728 | 5387 ft | 244 kts | 86° |
| 2026-05-08 20:01 | 48.98303 | 2.03322 | 5032 ft | 247 kts | 86° |
| 2026-05-08 20:01 | 48.98448 | 2.05929 | 4648 ft | 246 kts | 85° |
| 2026-05-08 20:02 | 48.98590 | 2.08498 | 4259 ft | 240 kts | 85° |
| 2026-05-08 20:02 | 48.98727 | 2.11010 | 4006 ft | 237 kts | 85° |
| 2026-05-08 20:02 | 48.98860 | 2.13540 | 3979 ft | 240 kts | 85° |
| 2026-05-08 20:02 | 48.98991 | 2.16049 | 3971 ft | 236 kts | 85° |
| 2026-05-08 20:03 | 48.99121 | 2.18537 | 3968 ft | 235 kts | 85° |
| 2026-05-08 20:03 | 48.99249 | 2.21002 | 3971 ft | 237 kts | 85° |
| 2026-05-08 20:03 | 48.99378 | 2.23522 | 3983 ft | 240 kts | 85° |
| 2026-05-08 20:03 | 48.99624 | 2.26045 | 3968 ft | 241 kts | 74° |
| 2026-05-08 20:04 | 49.00155 | 2.28464 | 3973 ft | 239 kts | 71° |
| 2026-05-08 20:04 | 49.00697 | 2.30775 | 3920 ft | 220 kts | 71° |
| 2026-05-08 20:04 | 49.01221 | 2.32940 | 3404 ft | 215 kts | 71° |
| 2026-05-08 20:04 | 49.01632 | 2.35058 | 3082 ft | 201 kts | 79° |
| 2026-05-08 20:05 | 49.01758 | 2.37115 | 2745 ft | 193 kts | 89° |
| 2026-05-08 20:05 | 49.01720 | 2.39106 | 2462 ft | 183 kts | 91° |
| 2026-05-08 20:05 | 49.01754 | 2.41008 | 2015 ft | 182 kts | 84° |
| 2026-05-08 20:05 | 49.01924 | 2.42849 | 1775 ft | 168 kts | 81° |
| 2026-05-08 20:06 | 49.02034 | 2.44540 | 1494 ft | 155 kts | 85° |
| 2026-05-08 20:06 | 49.02108 | 2.46108 | 1269 ft | 142 kts | 85° |
| 2026-05-08 20:06 | 49.02170 | 2.47554 | 1036 ft | 135 kts | 84° |
| 2026-05-08 20:06 | 49.02284 | 2.49002 | 780 ft | 141 kts | 79° |
| 2026-05-08 20:07 | 49.02363 | 2.50544 | 660 ft | 145 kts | 85° |
| 2026-05-08 20:07 | 49.02418 | 2.51544 | 513 ft | 141 kts | 81° |
| 2026-05-08 20:07 | 49.02499 | 2.52999 | 363 ft | 131 kts | 84° |
| 2026-05-08 20:07 | 49.02563 | 2.54121 | 353 ft | 43 kts | 85° |
| 2026-05-08 20:08 | 49.02564 | 2.54437 | 357 ft | 24 kts | 99° |
| 2026-05-08 20:08 | 49.02539 | 2.54598 | 353 ft | 23 kts | 105° |
| 2026-05-08 20:08 | 49.02498 | 2.54828 | 356 ft | 22 kts | 107° |
| 2026-05-08 20:08 | 49.02479 | 2.54935 | 362 ft | 8 kts | 105° |
| 2026-05-08 20:09 | 49.02464 | 2.55014 | 361 ft | 8 kts | 105° |
| 2026-05-08 20:09 | 49.02450 | 2.55093 | 362 ft | 8 kts | 105° |
| 2026-05-08 20:09 | 49.02447 | 2.55182 | 353 ft | 9 kts | 82° |
| 2026-05-08 20:09 | 49.02459 | 2.55288 | 353 ft | 11 kts | 87° |
| 2026-05-08 20:10 | 49.02458 | 2.55405 | 353 ft | 12 kts | 90° |
| 2026-05-08 20:10 | 49.02457 | 2.55546 | 357 ft | 14 kts | 105° |
| 2026-05-08 20:10 | 49.02379 | 2.55616 | 355 ft | 13 kts | 173° |
| 2026-05-08 20:10 | 49.02288 | 2.55626 | 355 ft | 13 kts | 176° |
| 2026-05-08 20:11 | 49.02203 | 2.55636 | 353 ft | 7 kts | 172° |
| 2026-05-08 20:11 | 49.02199 | 2.55637 | 353 ft | 1 kts | 172° |
| 2026-05-08 20:11 | 49.02189 | 2.55638 | 362 ft | 2 kts | 172° |
| 2026-05-08 20:11 | 49.02176 | 2.55641 | 362 ft | 2 kts | 172° |
| 2026-05-08 20:12 | 49.02167 | 2.55643 | 361 ft | 0 kts | 172° |
| 2026-05-08 20:12 | 49.02166 | 2.55643 | 361 ft | 0 kts | 172° |
| 2026-05-08 20:12 | 49.02164 | 2.55644 | 360 ft | 0 kts | 172° |
| 2026-05-08 20:12 | 49.02161 | 2.55644 | 357 ft | 0 kts | 172° |
| 2026-05-08 20:13 | 49.02156 | 2.55645 | 356 ft | 1 kts | 172° |
| 2026-05-08 20:13 | 49.02137 | 2.55649 | 355 ft | 4 kts | 174° |
| 2026-05-08 20:13 | 49.02102 | 2.55648 | 353 ft | 5 kts | 191° |
| 2026-05-08 20:13 | 49.02072 | 2.55616 | 362 ft | 6 kts | 243° |
| 2026-05-08 20:14 | 49.02066 | 2.55557 | 357 ft | 6 kts | 262° |
| 2026-05-08 20:14 | 49.02059 | 2.55482 | 356 ft | 8 kts | 262° |
| 2026-05-08 20:14 | 49.02050 | 2.55382 | 353 ft | 11 kts | 262° |
| 2026-05-08 20:14 | 49.02041 | 2.55272 | 356 ft | 0 kts | 266° |
| 2026-05-08 20:15 | 49.02041 | 2.55271 | 356 ft | 0 kts | 266° |
| 2026-05-08 20:15 | 49.02041 | 2.55239 | 353 ft | 7 kts | 272° |
| 2026-05-08 20:15 | 49.02044 | 2.55151 | 360 ft | 9 kts | 270° |
| 2026-05-08 20:15 | 49.02039 | 2.55062 | 353 ft | 8 kts | 260° |
| 2026-05-08 20:16 | 49.02033 | 2.54970 | 356 ft | 10 kts | 266° |
| 2026-05-08 20:16 | 49.02006 | 2.54870 | 358 ft | 11 kts | 213° |
| 2026-05-08 20:16 | 49.01928 | 2.54847 | 353 ft | 11 kts | 176° |
| 2026-05-08 20:16 | 49.01850 | 2.54854 | 356 ft | 11 kts | 176° |
| 2026-05-08 20:17 | 49.01773 | 2.54861 | 353 ft | 11 kts | 176° |
| 2026-05-08 20:17 | 49.01699 | 2.54869 | 358 ft | 11 kts | 175° |
| 2026-05-08 20:17 | 49.01627 | 2.54878 | 353 ft | 10 kts | 175° |
| 2026-05-08 20:17 | 49.01557 | 2.54889 | 358 ft | 10 kts | 172° |
| 2026-05-08 20:18 | 49.01488 | 2.54900 | 358 ft | 10 kts | 176° |
| 2026-05-08 20:18 | 49.01415 | 2.54909 | 353 ft | 11 kts | 171° |
| 2026-05-08 20:18 | 49.01341 | 2.54940 | 358 ft | 11 kts | 160° |
| 2026-05-08 20:18 | 49.01270 | 2.54977 | 353 ft | 11 kts | 163° |
| 2026-05-08 20:19 | 49.01198 | 2.55001 | 360 ft | 10 kts | 163° |
| 2026-05-08 20:19 | 49.01131 | 2.55034 | 357 ft | 10 kts | 165° |
| 2026-05-08 20:19 | 49.01062 | 2.55059 | 357 ft | 11 kts | 166° |
| 2026-05-08 20:19 | 49.00991 | 2.55090 | 353 ft | 10 kts | 162° |
| 2026-05-08 20:20 | 49.00924 | 2.55123 | 356 ft | 10 kts | 162° |
| 2026-05-08 20:20 | 49.00857 | 2.55154 | 362 ft | 10 kts | 166° |
| 2026-05-08 20:20 | 49.00791 | 2.55178 | 360 ft | 10 kts | 166° |
| 2026-05-08 20:20 | 49.00728 | 2.55207 | 355 ft | 10 kts | 162° |
| 2026-05-08 20:21 | 49.00659 | 2.55239 | 359 ft | 11 kts | 165° |
| 2026-05-08 20:21 | 49.00575 | 2.55273 | 360 ft | 13 kts | 165° |
| 2026-05-08 20:21 | 49.00480 | 2.55317 | 356 ft | 15 kts | 163° |
| 2026-05-08 20:21 | 49.00375 | 2.55360 | 353 ft | 15 kts | 163° |
| 2026-05-08 20:22 | 49.00275 | 2.55404 | 355 ft | 15 kts | 164° |
| 2026-05-08 20:22 | 49.00177 | 2.55446 | 353 ft | 15 kts | 163° |
| 2026-05-08 20:22 | 49.00087 | 2.55487 | 358 ft | 6 kts | 163° |
| 2026-05-08 20:22 | 49.00041 | 2.55503 | 355 ft | 8 kts | 174° |
| 2026-05-08 20:23 | 48.99990 | 2.55454 | 358 ft | 11 kts | 246° |
| 2026-05-08 20:23 | 48.99978 | 2.55332 | 353 ft | 13 kts | 265° |
| 2026-05-08 20:23 | 48.99971 | 2.55184 | 353 ft | 15 kts | 264° |
| 2026-05-08 20:23 | 48.99961 | 2.55015 | 353 ft | 17 kts | 265° |
| 2026-05-08 20:24 | 48.99951 | 2.54829 | 356 ft | 17 kts | 266° |
| 2026-05-08 20:24 | 48.99943 | 2.54652 | 356 ft | 14 kts | 266° |
| 2026-05-08 20:24 | 48.99967 | 2.54605 | 357 ft | 6 kts | 344° |
| 2026-05-08 20:24 | 49.00006 | 2.54596 | 357 ft | 6 kts | 354° |
| 2026-05-08 20:25 | 49.00027 | 2.54594 | 353 ft | 0 kts | 356° |